Time;durP1;ratioP1;P1;durP2;ratioP2;P2;SDS_P1;SDS_P2;PMS_P1;PMS_P2;Temp;Humidity;BMP_temperature;BMP_pressure;BME280_temperature;BME280_humidity;BME280_pressure;Samples;Min_cycle;Max_cycle;Signal;HPM_P1;HPM_P2
2023/08/08 00:09:11;;;;;;;0.20;0.10;;;10.60;89.90;;;;;;25561088;23;20009;-45
2023/08/08 00:19:13;;;;;;;0.38;0.10;;;10.80;90.50;;;;;;25588652;23;20067;-49
2023/08/08 00:29:15;;;;;;;0.20;0.10;;;10.70;89.80;;;;;;25568915;23;20436;-45
2023/08/08 00:39:17;;;;;;;0.10;0.10;;;10.70;89.70;;;;;;25595043;23;20024;-47
2023/08/08 00:49:19;;;;;;;0.20;0.10;;;10.60;89.90;;;;;;25594523;23;20056;-48
2023/08/08 00:59:23;;;;;;;0.13;0.10;;;10.60;89.60;;;;;;25593989;23;20310;-49
2023/08/08 01:10:07;;;;;;;0.20;0.10;;;10.60;89.20;;;;;;25593091;23;20005;-47
2023/08/08 01:20:10;;;;;;;0.10;0.10;;;10.50;90.70;;;;;;25096433;23;20011;-45
2023/08/08 01:30:12;;;;;;;0.43;0.10;;;10.40;90.70;;;;;;25095033;23;20019;-46
2023/08/08 01:40:17;;;;;;;0.28;0.10;;;10.30;90.90;;;;;;25094692;23;20377;-45
2023/08/08 01:50:21;;;;;;;0.45;0.10;;;10.20;90.80;;;;;;25479512;23;20009;-44
2023/08/08 02:00:23;;;;;;;0.47;0.20;;;10.00;91.40;;;;;;25593183;23;20512;-46
2023/08/08 02:10:25;;;;;;;0.10;0.00;;;9.90;91.10;;;;;;25590997;23;20080;-48
2023/08/08 02:20:27;;;;;;;0.25;0.10;;;10.00;91.50;;;;;;25590497;23;20005;-49
2023/08/08 02:30:28;;;;;;;0.63;0.10;;;10.00;91.40;;;;;;25563786;23;20005;-60
2023/08/08 02:40:30;;;;;;;0.10;0.00;;;9.90;91.50;;;;;;25563042;23;20447;-60
2023/08/08 02:50:32;;;;;;;0.10;0.10;;;9.90;91.80;;;;;;25538581;23;20021;-60
2023/08/08 03:00:35;;;;;;;0.30;0.10;;;9.90;92.30;;;;;;25589776;23;20005;-59
2023/08/08 03:10:37;;;;;;;0.00;0.00;;;9.90;92.30;;;;;;25562348;23;20009;-45
2023/08/08 03:20:40;;;;;;;0.38;0.10;;;9.90;92.60;;;;;;25588346;23;20055;-60
2023/08/08 03:30:44;;;;;;;0.77;0.20;;;9.70;94.00;;;;;;25588208;23;20373;-59
2023/08/08 03:40:47;;;;;;;0.90;0.20;;;9.60;94.50;;;;;;25587313;23;20012;-44
2023/08/08 03:50:49;;;;;;;0.60;0.20;;;9.50;96.40;;;;;;25587453;23;20009;-45
2023/08/08 04:00:51;;;;;;;0.13;0.10;;;9.50;95.50;;;;;;25596062;23;20028;-48
2023/08/08 04:10:54;;;;;;;0.30;0.10;;;9.60;96.10;;;;;;25569271;23;20008;-60
2023/08/08 04:20:56;;;;;;;0.30;0.10;;;9.80;96.20;;;;;;25569024;23;20059;-46
2023/08/08 04:30:58;;;;;;;0.30;0.15;;;9.60;97.00;;;;;;25594929;23;20444;-59
2023/08/08 04:41:00;;;;;;;0.30;0.20;;;9.40;96.50;;;;;;25594468;23;20012;-60
2023/08/08 04:51:02;;;;;;;0.20;0.08;;;9.60;96.60;;;;;;25594432;23;20444;-47
2023/08/08 05:01:04;;;;;;;0.52;0.20;;;10.00;96.10;;;;;;25593243;23;20075;-48
2023/08/08 05:11:06;;;;;;;0.65;0.28;;;10.50;97.10;;;;;;25594564;23;20024;-49
2023/08/08 05:21:08;;;;;;;0.60;0.30;;;10.80;97.90;;;;;;25593398;23;20008;-45
2023/08/08 05:31:10;;;;;;;0.40;0.20;;;11.30;97.70;;;;;;25592805;23;20515;-47
2023/08/08 05:41:12;;;;;;;0.30;0.20;;;11.70;98.20;;;;;;25565936;23;20013;-47
2023/08/08 05:51:14;;;;;;;0.30;0.20;;;12.00;99.50;;;;;;25592155;23;20109;-53
2023/08/08 06:01:15;;;;;;;1.40;0.20;;;12.30;98.10;;;;;;25591597;23;20154;-48
2023/08/08 06:11:17;;;;;;;1.70;0.40;;;12.00;98.80;;;;;;25591116;23;20001;-48
2023/08/08 06:21:19;;;;;;;1.45;0.47;;;11.50;99.90;;;;;;25591062;23;20130;-46
2023/08/08 06:31:22;;;;;;;0.65;0.43;;;11.20;99.90;;;;;;25563735;23;20013;-48
2023/08/08 06:41:24;;;;;;;1.23;0.80;;;12.30;99.70;;;;;;25590022;23;20444;-59
2023/08/08 06:51:26;;;;;;;1.50;0.60;;;16.80;93.90;;;;;;25589838;23;20024;-46
2023/08/08 07:01:28;;;;;;;1.02;0.65;;;19.10;91.40;;;;;;25589948;23;20009;-60
2023/08/08 07:11:29;;;;;;;2.92;0.77;;;20.90;90.10;;;;;;25588911;23;20016;-61
2023/08/08 07:21:32;;;;;;;1.48;0.70;;;21.70;89.10;;;;;;25588640;23;20376;-61
2023/08/08 07:31:34;;;;;;;0.60;0.40;;;21.00;90.00;;;;;;25588198;23;20028;-60
2023/08/08 07:41:35;;;;;;;0.55;0.43;;;20.00;91.70;;;;;;25587873;23;20009;-61
2023/08/08 07:51:37;;;;;;;0.73;0.50;;;20.30;92.30;;;;;;25587712;23;20010;-50
2023/08/08 08:01:39;;;;;;;1.17;0.40;;;20.60;91.60;;;;;;25330370;23;20010;-61
2023/08/08 08:11:41;;;;;;;0.95;0.32;;;19.70;93.20;;;;;;25330193;23;20014;-48
2023/08/08 08:21:43;;;;;;;0.77;0.52;;;19.30;93.00;;;;;;25329920;23;20438;-61
2023/08/08 08:31:45;;;;;;;0.90;0.50;;;20.30;93.80;;;;;;25366933;23;20009;-61
2023/08/08 08:41:54;;;;;;;2.22;0.50;;;21.30;92.00;;;;;;25589610;23;20017;-61
2023/08/08 08:52:04;;;;;;;1.25;0.52;;;21.80;91.60;;;;;;25636062;23;20016;-48
2023/08/08 09:02:07;;;;;;;2.03;0.70;;;21.50;91.90;;;;;;25635459;23;20055;-61
2023/08/08 09:12:10;;;;;;;2.03;0.65;;;20.90;92.40;;;;;;25593291;23;20429;-61
2023/08/08 09:22:15;;;;;;;1.30;0.60;;;21.00;93.60;;;;;;25593148;23;20012;-60
2023/08/08 09:32:18;;;;;;;1.88;0.85;;;21.10;93.80;;;;;;25592604;23;20063;-61
2023/08/08 09:42:20;;;;;;;2.40;0.80;;;21.50;92.80;;;;;;25591955;23;20005;-61
2023/08/08 09:52:22;;;;;;;0.90;0.60;;;22.00;93.90;;;;;;25591612;23;20446;-61
2023/08/08 10:02:24;;;;;;;2.58;0.90;;;22.60;92.20;;;;;;25591817;23;20009;-61
2023/08/08 10:12:27;;;;;;;2.95;1.00;;;23.10;94.40;;;;;;25591082;23;20546;-61
2023/08/08 10:22:29;;;;;;;1.60;1.08;;;22.30;92.30;;;;;;25590581;23;20008;-48
2023/08/08 10:32:42;;;;;;;2.17;1.55;;;21.90;93.00;;;;;;25589756;23;20012;-61
2023/08/08 10:42:46;;;;;;;1.95;1.08;;;21.90;92.50;;;;;;25401625;23;20021;-61
2023/08/08 10:52:55;;;;;;;2.00;0.93;;;21.90;92.70;;;;;;25464493;23;20010;-61
2023/08/08 11:02:58;;;;;;;2.15;1.20;;;22.60;92.80;;;;;;25492196;23;20009;-60
2023/08/08 11:13:06;;;;;;;2.70;1.10;;;23.90;93.60;;;;;;25465336;23;20072;-60
2023/08/08 11:23:10;;;;;;;;;;;24.70;90.80;;;;;;25506620;23;20035;-61
2023/08/08 11:33:17;;;;;;;3.10;0.70;;;24.40;91.20;;;;;;25465043;23;19913;-60
2023/08/08 11:43:19;;;;;;;1.70;0.50;;;24.20;91.90;;;;;;25583346;23;20020;-60
2023/08/08 11:53:23;;;;;;;2.80;0.60;;;24.50;93.20;;;;;;25588839;23;20159;-60
2023/08/08 12:03:26;;;;;;;2.90;0.40;;;24.30;93.30;;;;;;25587527;23;20375;-48
2023/08/08 12:13:28;;;;;;;1.10;0.55;;;25.40;91.60;;;;;;25588240;23;20515;-60
2023/08/08 12:23:31;;;;;;;0.82;0.50;;;25.50;88.80;;;;;;25595224;23;20375;-57
2023/08/08 12:33:33;;;;;;;1.58;0.60;;;24.70;91.70;;;;;;25595201;23;20013;-61
2023/08/08 12:43:35;;;;;;;1.15;0.40;;;23.40;92.70;;;;;;25594411;23;20318;-60
2023/08/08 12:53:37;;;;;;;1.45;0.40;;;23.70;92.30;;;;;;25594138;23;20013;-60
2023/08/08 13:03:39;;;;;;;1.08;0.32;;;23.60;91.90;;;;;;25593968;23;20012;-60
2023/08/08 13:13:42;;;;;;;0.50;0.40;;;23.50;91.90;;;;;;25593210;23;20008;-59
2023/08/08 13:23:44;;;;;;;0.85;0.50;;;23.60;91.50;;;;;;25592840;23;20329;-59
2023/08/08 13:33:47;;;;;;;1.20;0.55;;;23.60;92.20;;;;;;25593199;23;20059;-59
2023/08/08 13:43:49;;;;;;;0.65;0.50;;;23.80;91.60;;;;;;25591897;23;20028;-47
2023/08/08 13:53:51;;;;;;;1.95;0.50;;;23.30;91.30;;;;;;25592006;23;20005;-47
2023/08/08 14:03:53;;;;;;;0.82;0.50;;;23.60;92.00;;;;;;25591496;23;20083;-48
2023/08/08 14:13:55;;;;;;;0.90;0.50;;;22.80;90.40;;;;;;25590539;23;19997;-48
2023/08/08 14:23:56;;;;;;;1.60;0.40;;;21.70;91.80;;;;;;25590391;23;20055;-61
2023/08/08 14:33:58;;;;;;;3.33;0.50;;;21.80;90.60;;;;;;25590405;23;20001;-60
2023/08/08 14:44:00;;;;;;;1.08;0.40;;;22.00;91.80;;;;;;25628717;23;20024;-60
2023/08/08 14:54:03;;;;;;;1.67;0.45;;;22.90;90.20;;;;;;25331497;23;20010;-51
2023/08/08 15:04:05;;;;;;;2.08;0.50;;;22.70;90.50;;;;;;25331426;23;20126;-60
2023/08/08 15:14:07;;;;;;;2.85;0.50;;;23.00;94.30;;;;;;25328293;23;20010;-58
2023/08/08 15:24:09;;;;;;;0.63;0.43;;;23.30;89.70;;;;;;25365549;23;20001;-57
2023/08/08 15:34:11;;;;;;;1.98;0.63;;;23.40;88.50;;;;;;25588057;23;20081;-56
2023/08/08 15:44:13;;;;;;;1.48;0.75;;;23.60;90.00;;;;;;25587525;23;19998;-47
2023/08/08 15:54:15;;;;;;;0.88;0.52;;;23.50;86.70;;;;;;25587203;23;20302;-56
2023/08/08 16:04:17;;;;;;;0.80;0.50;;;22.80;86.90;;;;;;25587491;23;20056;-57
2023/08/08 16:14:19;;;;;;;2.20;0.70;;;22.00;90.80;;;;;;25587451;23;20005;-57
2023/08/08 16:24:21;;;;;;;3.45;0.80;;;22.20;90.20;;;;;;25586790;23;20016;-52
2023/08/08 16:34:23;;;;;;;1.50;0.80;;;21.50;90.30;;;;;;25583058;23;20016;-52
2023/08/08 16:44:25;;;;;;;1.50;0.77;;;19.60;92.80;;;;;;25585505;23;20009;-51
2023/08/08 16:54:27;;;;;;;1.40;0.80;;;18.70;94.60;;;;;;25586024;23;20009;-43
2023/08/08 17:04:31;;;;;;;2.55;0.85;;;18.00;95.90;;;;;;25590414;23;20029;-48
2023/08/08 17:14:33;;;;;;;3.50;1.00;;;17.60;97.10;;;;;;25593055;23;20078;-52
2023/08/08 17:24:35;;;;;;;2.30;1.30;;;17.10;95.60;;;;;;25592680;23;20013;-43
2023/08/08 17:34:37;;;;;;;1.65;0.95;;;16.30;97.00;;;;;;25590012;23;20063;-47
2023/08/08 17:44:38;;;;;;;2.00;1.25;;;15.60;99.10;;;;;;25632355;23;20032;-55
2023/08/08 17:54:40;;;;;;;5.43;3.67;;;15.00;99.60;;;;;;25590490;23;20036;-54
2023/08/08 18:04:42;;;;;;;4.45;1.65;;;14.20;99.90;;;;;;25590113;23;20376;-48
2023/08/08 18:14:44;;;;;;;3.83;1.15;;;13.50;99.90;;;;;;25591616;23;20005;-51
2023/08/08 18:24:46;;;;;;;5.40;1.60;;;13.40;99.90;;;;;;25589298;23;20005;-45
2023/08/08 18:34:47;;;;;;;2.65;1.67;;;14.10;97.90;;;;;;25588602;23;20498;-50
2023/08/08 18:44:50;;;;;;;5.55;1.77;;;14.40;96.80;;;;;;25588350;23;20005;-51
2023/08/08 18:54:52;;;;;;;3.10;1.50;;;14.20;97.70;;;;;;25587618;23;20071;-49
2023/08/08 19:04:54;;;;;;;3.60;1.60;;;13.80;99.00;;;;;;25588937;23;20001;-48
2023/08/08 19:14:56;;;;;;;22.50;15.13;;;13.20;99.90;;;;;;25560778;23;20013;-44
2023/08/08 19:24:58;;;;;;;7.88;2.58;;;12.60;99.90;;;;;;25585856;23;20005;-54
2023/08/08 19:35:00;;;;;;;4.93;1.70;;;12.10;99.90;;;;;;25584229;23;20475;-43
2023/08/08 19:45:05;;;;;;;3.53;1.92;;;11.80;99.90;;;;;;25587690;23;20067;-49
2023/08/08 19:55:08;;;;;;;5.10;2.00;;;11.80;99.90;;;;;;25587075;23;20013;-51
2023/08/08 20:05:11;;;;;;;3.72;2.35;;;11.70;99.90;;;;;;25585848;23;20017;-43
2023/08/08 20:15:14;;;;;;;4.60;2.20;;;11.50;99.90;;;;;;25587012;23;20001;-51
2023/08/08 20:25:16;;;;;;;5.30;2.42;;;11.40;99.90;;;;;;25587608;23;20008;-50
2023/08/08 20:35:19;;;;;;;4.38;2.10;;;11.40;99.90;;;;;;25588102;23;20420;-43
2023/08/08 20:45:22;;;;;;;5.53;2.25;;;11.30;99.90;;;;;;25567632;23;20083;-50
2023/08/08 20:55:25;;;;;;;3.90;2.03;;;11.20;99.90;;;;;;25593814;23;20005;-49
2023/08/08 21:05:27;;;;;;;5.20;1.90;;;11.50;99.90;;;;;;25593638;23;20063;-52
2023/08/08 21:15:30;;;;;;;3.10;1.70;;;11.80;99.90;;;;;;25594555;23;20035;-51
2023/08/08 21:25:34;;;;;;;6.10;2.28;;;11.80;99.90;;;;;;25592873;23;20013;-53
2023/08/08 21:35:36;;;;;;;3.38;1.98;;;12.10;99.90;;;;;;25592183;23;20013;-55
2023/08/08 21:45:38;;;;;;;3.30;2.30;;;12.20;99.90;;;;;;25565057;23;20503;-54
2023/08/08 21:55:40;;;;;;;3.40;2.45;;;11.70;99.90;;;;;;25592902;23;20012;-49
2023/08/08 22:05:42;;;;;;;5.15;3.10;;;11.30;99.90;;;;;;25592242;23;20390;-48
2023/08/08 22:15:44;;;;;;;6.45;2.70;;;11.40;99.90;;;;;;25590902;23;20088;-52
2023/08/08 22:25:50;;;;;;;6.45;2.83;;;11.40;99.90;;;;;;25589944;23;20005;-52
2023/08/08 22:35:52;;;;;;;3.83;2.60;;;11.40;99.90;;;;;;25590917;23;20017;-49
2023/08/08 22:45:54;;;;;;;3.65;2.60;;;11.20;99.90;;;;;;25589952;23;20108;-45
2023/08/08 22:55:56;;;;;;;6.72;3.50;;;11.00;99.90;;;;;;25591114;23;20009;-43
2023/08/08 23:05:59;;;;;;;6.68;3.47;;;10.90;99.90;;;;;;25589039;23;20005;-50
2023/08/08 23:16:00;;;;;;;4.82;3.50;;;10.90;99.90;;;;;;25589088;23;20009;-45
2023/08/08 23:26:02;;;;;;;3.30;2.90;;;10.90;99.90;;;;;;25588982;23;20064;-43
2023/08/08 23:36:06;;;;;;;4.30;3.30;;;11.10;99.90;;;;;;25588670;23;20095;-43
2023/08/08 23:46:08;;;;;;;3.08;2.47;;;11.20;99.90;;;;;;25588036;23;20013;-46
2023/08/08 23:56:10;;;;;;;7.13;2.90;;;11.30;99.90;;;;;;25587877;23;20005;-44
